ZYTX/SHE METAR and TAF weather

Enter ICAO airport designator
Station Type Date Time Source
ZYTX METAR 2019/08/22 05:30 UTC NOAA

ZYTX 220530Z 25004MPS 9999 FEW040 26/15 Q1006 NOSIG


Station Type Date Time Source
ZYTX Decoded METAR 2019/08/22 05:30 UTC NOAA

Station name not available
Aug 22, 2019 - 01:30 AM EDT / 2019.08.22 0530 UTC
Wind: from the WSW (250 degrees) at 9 MPH (8 KT):0
Visibility: greater than 7 mile(s):0
Sky conditions: mostly clear
Temperature: 78 F (26 C)
Dew Point: 59 F (15 C)
Relative Humidity: 50%
Pressure (altimeter): 29.71 in. Hg (1006 hPa)
ob: ZYTX 220530Z 25004MPS 9999 FEW040 26/15 Q1006 NOSIG
cycle: 5

Station Type Date Time Source
ZYTX TAF 2019/08/22 06:03 UTC NOAA

TAF ZYTX 220246Z 2206/2306 28004MPS 6000 NSC TX27/2206Z TN16/2221Z

Example: see airport list